Observation data for Levelland on 04/23/2019      Previous  Date       Current Mesonet Observations  Soil Data  Daily Summary Page  Observations in Plain Language
KLD1 230500Z 04013KT 12/11 A3006 RMK A01 T01230107  RH  093%=      5-min Rain = 0
KLD1 230505Z 04014KT 12/11 A3006 RMK A01 T01230107  RH  093%=      5-min Rain = 0
KLD1 230510Z 05012KT 12/11 A3006 RMK A01 T01230107  RH  093%=      5-min Rain = 0
KLD1 230515Z 05012KT 12/11 A3006 RMK A01 T01220107  RH  094%=      5-min Rain = 0
KLD1 230520Z 05012KT 12/11 A3006 RMK A01 T01220107  RH  094%=      5-min Rain = 0.01
KLD1 230525Z 05013KT 12/11 A3006 RMK A01 T01220107  RH  094%=      5-min Rain = 0
KLD1 230530Z 04013KT 12/11 A3006 RMK A01 T01220107  RH  093%=      5-min Rain = 0
KLD1 230535Z 04013KT 12/11 A3006 RMK A01 T01220106  RH  093%=      5-min Rain = 0
KLD1 230540Z 03011KT 12/11 A3005 RMK A01 T01220106  RH  093%=      5-min Rain = 0
KLD1 230545Z 03012KT 12/11 A3005 RMK A01 T01220106  RH  093%=      5-min Rain = 0
KLD1 230550Z 03011KT 12/11 A3005 RMK A01 T01220106  RH  093%=      5-min Rain = 0
KLD1 230555Z 03011KT 12/11 A3005 RMK A01 T01220106  RH  093%=      5-min Rain = 0
KLD1 230600Z 03011KT 12/11 A3005 RMK A01 T01220106  RH  093%=      5-min Rain = 0
KLD1 230605Z 03010KT 12/11 A3005 RMK A01 T01220106  RH  093%=      5-min Rain = 0
KLD1 230610Z 03012KT 12/11 A3005 RMK A01 T01220106  RH  093%=      5-min Rain = 0
KLD1 230615Z 03011KT 12/11 A3005 RMK A01 T01220106  RH  093%=      5-min Rain = 0
KLD1 230620Z 03011KT 12/11 A3006 RMK A01 T01210106  RH  094%=      5-min Rain = 0.01
KLD1 230625Z 03013KT 12/11 A3005 RMK A01 T01200106  RH  094%=      5-min Rain = 0.02
KLD1 230630Z 04013KT 12/11 A3005 RMK A01 T01200106  RH  095%=      5-min Rain = 0.02
KLD1 230635Z 04013KT 12/11 A3005 RMK A01 T01190106  RH  095%=      5-min Rain = 0
KLD1 230640Z 04012G17KT 12/11 A3005 RMK A01 T01190106  RH  095%=      5-min Rain = 0
KLD1 230645Z 04007G12KT 12/11 A3006 RMK A01 T01200107  RH  095%=      5-min Rain = 0
KLD1 230650Z 05004KT 12/11 A3007 RMK A01 T01200107  RH  095%=      5-min Rain = 0.02
KLD1 230655Z 06008KT 12/11 A3006 RMK A01 T01200107  RH  095%=      5-min Rain = 0
KLD1 230700Z 05009KT 12/11 A3006 RMK A01 T01200107  RH  095%=      5-min Rain = 0
KLD1 230705Z 04013KT 12/11 A3005 RMK A01 T01200106  RH  095%=      5-min Rain = 0
KLD1 230710Z 04011KT 12/11 A3005 RMK A01 T01190106  RH  095%=      5-min Rain = 0
KLD1 230715Z 04018KT 12/11 A3004 RMK A01 T01190106  RH  095%=      5-min Rain = 0
KLD1 230720Z 04016KT 12/11 A3004 RMK A01 T01190106  RH  095%=      5-min Rain = 0
KLD1 230725Z 03012KT 12/11 A3004 RMK A01 T01190106  RH  095%=      5-min Rain = 0
KLD1 230730Z 02012KT 12/11 A3005 RMK A01 T01190106  RH  095%=      5-min Rain = 0
KLD1 230735Z 03012KT 12/11 A3005 RMK A01 T01190106  RH  095%=      5-min Rain = 0
KLD1 230740Z 03012KT 12/11 A3006 RMK A01 T01200105  RH  094%=      5-min Rain = 0
KLD1 230745Z 02010KT 12/11 A3005 RMK A01 T01200106  RH  094%=      5-min Rain = 0
KLD1 230750Z 02012KT 12/11 A3005 RMK A01 T01200106  RH  094%=      5-min Rain = 0
KLD1 230755Z 03012KT 12/11 A3005 RMK A01 T01200105  RH  094%=      5-min Rain = 0
KLD1 230800Z 03014KT 12/11 A3004 RMK A01 T01200105  RH  094%=      5-min Rain = 0
KLD1 230805Z 02014KT 12/11 A3003 RMK A01 T01190105  RH  094%=      5-min Rain = 0
KLD1 230810Z 01011KT 12/11 A3004 RMK A01 T01190105  RH  095%=      5-min Rain = 0
KLD1 230815Z 33008KT 12/11 A3005 RMK A01 T01200107  RH  095%=      5-min Rain = 0
KLD1 230820Z 31010KT 12/11 A3006 RMK A01 T01200107  RH  095%=      5-min Rain = 0
KLD1 230825Z 30011KT 12/11 A3006 RMK A01 T01200107  RH  095%=      5-min Rain = 0.01
KLD1 230830Z 33008KT 12/11 A3006 RMK A01 T01190107  RH  095%=      5-min Rain = 0
KLD1 230835Z 34006KT 12/11 A3005 RMK A01 T01190106  RH  095%=      5-min Rain = 0.01
KLD1 230840Z 32007KT 12/11 A3006 RMK A01 T01190106  RH  094%=      5-min Rain = 0
KLD1 230845Z 34008KT 12/11 A3007 RMK A01 T01200105  RH  093%=      5-min Rain = 0
KLD1 230850Z 35006KT 12/10 A3007 RMK A01 T01200104  RH  093%=      5-min Rain = 0.04
KLD1 230855Z 36006KT 12/11 A3007 RMK A01 T01190105  RH  094%=      5-min Rain = 0.02
KLD1 230900Z 33007KT 12/11 A3007 RMK A01 T01180105  RH  095%=      5-min Rain = 0.04
KLD1 230905Z 35008KT 12/11 A3006 RMK A01 T01180105  RH  095%=      5-min Rain = 0.01
KLD1 230910Z 01013KT 12/11 A3003 RMK A01 T01170105  RH  095%=      5-min Rain = 0.02
KLD1 230915Z 00013KT 12/11 A3003 RMK A01 T01170106  RH  096%=      5-min Rain = 0
KLD1 230920Z 00014G19KT 12/11 A3002 RMK A01 T01180106  RH  096%=      5-min Rain = 0.01
KLD1 230925Z 01015G20KT 12/11 A3002 RMK A01 T01180106  RH  096%=      5-min Rain = 0
KLD1 230930Z 01012KT 12/11 A3002 RMK A01 T01180106  RH  096%=      5-min Rain = 0
KLD1 230935Z 02015KT 12/11 A3001 RMK A01 T01170106  RH  096%=      5-min Rain = 0
KLD1 230940Z 02014KT 12/11 A3001 RMK A01 T01170105  RH  095%=      5-min Rain = 0
KLD1 230945Z 02015KT 12/10 A3001 RMK A01 T01170104  RH  095%=      5-min Rain = 0
KLD1 230950Z 01012KT 12/10 A3001 RMK A01 T01160104  RH  095%=      5-min Rain = 0
KLD1 230955Z 00010KT 12/10 A3001 RMK A01 T01160104  RH  095%=      5-min Rain = 0
KLD1 231000Z 00011KT 12/10 A3001 RMK A01 T01160103  RH  095%=      5-min Rain = 0
KLD1 231005Z 01012KT 12/10 A3001 RMK A01 T01160102  RH  094%=      5-min Rain = 0
KLD1 231010Z 00012KT 12/10 A3002 RMK A01 T01160102  RH  094%=      5-min Rain = 0
KLD1 231015Z 00011KT 12/10 A3002 RMK A01 T01160101  RH  094%=      5-min Rain = 0
KLD1 231020Z 35008KT 12/10 A3003 RMK A01 T01150101  RH  094%=      5-min Rain = 0
KLD1 231025Z 35007KT 12/10 A3003 RMK A01 T01150101  RH  094%=      5-min Rain = 0
KLD1 231030Z 34007KT 12/10 A3004 RMK A01 T01150101  RH  094%=      5-min Rain = 0
KLD1 231035Z 35008KT 12/10 A3004 RMK A01 T01170101  RH  093%=      5-min Rain = 0
KLD1 231040Z 35007KT 12/10 A3004 RMK A01 T01160101  RH  093%=      5-min Rain = 0
KLD1 231045Z 33007KT 12/10 A3006 RMK A01 T01170101  RH  093%=      5-min Rain = 0
KLD1 231050Z 32008KT 12/10 A3006 RMK A01 T01170101  RH  093%=      5-min Rain = 0
KLD1 231055Z 33009KT 12/10 A3006 RMK A01 T01160101  RH  093%=      5-min Rain = 0
KLD1 231100Z 33010KT 12/10 A3006 RMK A01 T01150100  RH  093%=      5-min Rain = 0
KLD1 231105Z 32012KT 12/10 A3007 RMK A01 T01150101  RH  094%=      5-min Rain = 0
KLD1 231110Z 34011KT 12/10 A3006 RMK A01 T01150102  RH  094%=      5-min Rain = 0
KLD1 231115Z 34009KT 12/10 A3006 RMK A01 T01150101  RH  095%=      5-min Rain = 0
KLD1 231120Z 34010KT 11/10 A3007 RMK A01 T01140101  RH  095%=      5-min Rain = 0
KLD1 231125Z 35011KT 12/10 A3007 RMK A01 T01150101  RH  095%=      5-min Rain = 0
KLD1 231130Z 36011KT 11/10 A3006 RMK A01 T01140101  RH  095%=      5-min Rain = 0
KLD1 231135Z 01011KT 11/10 A3005 RMK A01 T01140100  RH  094%=      5-min Rain = 0
KLD1 231140Z 01011KT 11/10 A3005 RMK A01 T01140100  RH  094%=      5-min Rain = 0
KLD1 231145Z 00011KT 11/10 A3006 RMK A01 T01140100  RH  095%=      5-min Rain = 0
KLD1 231150Z 34010KT 11/10 A3007 RMK A01 T01140100  RH  095%=      5-min Rain = 0
KLD1 231155Z 34009KT 11/10 A3008 RMK A01 T01140100  RH  094%=      5-min Rain = 0
KLD1 231200Z 00012KT 11/10 A3007 RMK A01 T01140100  RH  094%=      5-min Rain = 0
KLD1 231205Z 01014KT 11/10 A3006 RMK A01 T01130098  RH  094%=      5-min Rain = 0
KLD1 231210Z 01014KT 11/10 A3005 RMK A01 T01120098  RH  094%=      5-min Rain = 0
KLD1 231215Z 01014KT 11/10 A3005 RMK A01 T01100097  RH  095%=      5-min Rain = 0
KLD1 231220Z 01012KT 11/10 A3005 RMK A01 T01090096  RH  095%=      5-min Rain = 0
KLD1 231225Z 02011KT 11/10 A3005 RMK A01 T01090096  RH  095%=      5-min Rain = 0
KLD1 231230Z 02011G16KT 11/10 A3005 RMK A01 T01090096  RH  095%=      5-min Rain = 0
KLD1 231235Z 02012KT 11/10 A3004 RMK A01 T01080096  RH  095%=      5-min Rain = 0
KLD1 231240Z 02011KT 11/10 A3004 RMK A01 T01080096  RH  095%=      5-min Rain = 0.01
KLD1 231245Z 02010KT 11/10 A3005 RMK A01 T01080096  RH  095%=      5-min Rain = 0
KLD1 231250Z 03009KT 11/10 A3006 RMK A01 T01080096  RH  095%=      5-min Rain = 0
KLD1 231255Z 04009KT 11/10 A3006 RMK A01 T01080096  RH  095%=      5-min Rain = 0
KLD1 231300Z 04008KT 11/10 A3006 RMK A01 T01090096  RH  095%=      5-min Rain = 0
KLD1 231305Z 03010KT 11/10 A3006 RMK A01 T01080096  RH  095%=      5-min Rain = 0
KLD1 231310Z 03010KT 11/10 A3006 RMK A01 T01090098  RH  096%=      5-min Rain = 0
KLD1 231315Z 03012KT 11/10 A3005 RMK A01 T01100099  RH  096%=      5-min Rain = 0
KLD1 231320Z 03012G17KT 11/10 A3006 RMK A01 T01120100  RH  095%=      5-min Rain = 0
KLD1 231325Z 03012G17KT 11/10 A3005 RMK A01 T01130101  RH  095%=      5-min Rain = 0
KLD1 231330Z 03013KT 11/10 A3005 RMK A01 T01140101  RH  095%=      5-min Rain = 0
KLD1 231335Z 03013G18KT 12/10 A3005 RMK A01 T01150102  RH  095%=      5-min Rain = 0
KLD1 231340Z 03013G18KT 12/10 A3005 RMK A01 T01160103  RH  094%=      5-min Rain = 0
KLD1 231345Z 03014KT 12/10 A3006 RMK A01 T01170103  RH  094%=      5-min Rain = 0
KLD1 231350Z 03014KT 12/10 A3006 RMK A01 T01180103  RH  094%=      5-min Rain = 0
KLD1 231355Z 03015KT 12/10 A3006 RMK A01 T01180103  RH  093%=      5-min Rain = 0
KLD1 231400Z 03015KT 12/10 A3006 RMK A01 T01190103  RH  093%=      5-min Rain = 0
KLD1 231405Z 03015G20KT 12/10 A3007 RMK A01 T01190102  RH  092%=      5-min Rain = 0
KLD1 231410Z 03013G18KT 12/10 A3007 RMK A01 T01190102  RH  092%=      5-min Rain = 0
KLD1 231415Z 03014KT 12/10 A3008 RMK A01 T01190102  RH  092%=      5-min Rain = 0
KLD1 231420Z 03013G18KT 12/10 A3008 RMK A01 T01200102  RH  092%=      5-min Rain = 0
KLD1 231425Z 03014KT 12/10 A3008 RMK A01 T01200103  RH  092%=      5-min Rain = 0
KLD1 231430Z 03013G18KT 12/10 A3008 RMK A01 T01220104  RH  092%=      5-min Rain = 0
KLD1 231435Z 02012KT 12/10 A3008 RMK A01 T01230104  RH  091%=      5-min Rain = 0
KLD1 231440Z 02012G17KT 12/11 A3008 RMK A01 T01240105  RH  091%=      5-min Rain = 0
KLD1 231445Z 03012G17KT 12/11 A3008 RMK A01 T01230105  RH  091%=      5-min Rain = 0
KLD1 231450Z 03012KT 12/11 A3008 RMK A01 T01240105  RH  091%=      5-min Rain = 0
KLD1 231455Z 03012KT 12/11 A3008 RMK A01 T01240106  RH  092%=      5-min Rain = 0
KLD1 231500Z 03012KT 12/11 A3008 RMK A01 T01240105  RH  091%=      5-min Rain = 0
KLD1 231505Z 03012KT 12/11 A3008 RMK A01 T01240105  RH  091%=      5-min Rain = 0
KLD1 231510Z 03011KT 13/11 A3009 RMK A01 T01250106  RH  091%=      5-min Rain = 0
KLD1 231515Z 02011KT 13/11 A3009 RMK A01 T01260106  RH  091%=      5-min Rain = 0
KLD1 231520Z 02012KT 13/11 A3009 RMK A01 T01270107  RH  090%=      5-min Rain = 0
KLD1 231525Z 01012KT 13/11 A3008 RMK A01 T01280108  RH  090%=      5-min Rain = 0
KLD1 231530Z 01013KT 13/11 A3008 RMK A01 T01320111  RH  090%=      5-min Rain = 0
KLD1 231535Z 03013G18KT 13/11 A3008 RMK A01 T01340111  RH  089%=      5-min Rain = 0
KLD1 231540Z 03014KT 13/11 A3008 RMK A01 T01330109  RH  088%=      5-min Rain = 0
KLD1 231545Z 03013G18KT 14/11 A3007 RMK A01 T01360112  RH  088%=      5-min Rain = 0
KLD1 231550Z 03014G19KT 14/11 A3007 RMK A01 T01430114  RH  086%=      5-min Rain = 0
KLD1 231555Z 04016KT 14/11 A3007 RMK A01 T01430113  RH  085%=      5-min Rain = 0
KLD1 231600Z 04016KT 14/11 A3007 RMK A01 T01410109  RH  084%=      5-min Rain = 0
KLD1 231605Z 04013KT 14/11 A3008 RMK A01 T01430113  RH  085%=      5-min Rain = 0
KLD1 231610Z 04014KT 15/11 A3008 RMK A01 T01450113  RH  084%=      5-min Rain = 0
KLD1 231615Z 04014G19KT 15/11 A3008 RMK A01 T01490112  RH  082%=      5-min Rain = 0
KLD1 231620Z 05015KT 15/11 A3007 RMK A01 T01500110  RH  080%=      5-min Rain = 0
KLD1 231625Z 06016KT 15/11 A3007 RMK A01 T01470108  RH  080%=      5-min Rain = 0
KLD1 231630Z 06015KT 15/11 A3008 RMK A01 T01480110  RH  081%=      5-min Rain = 0
KLD1 231635Z 05014KT 15/11 A3008 RMK A01 T01530113  RH  080%=      5-min Rain = 0
KLD1 231640Z 05015KT 15/11 A3008 RMK A01 T01500109  RH  079%=      5-min Rain = 0
KLD1 231645Z 05014KT 15/11 A3007 RMK A01 T01530112  RH  079%=      5-min Rain = 0
KLD1 231650Z 05014KT 16/11 A3008 RMK A01 T01560114  RH  079%=      5-min Rain = 0
KLD1 231655Z 03014KT 15/12 A3008 RMK A01 T01540115  RH  080%=      5-min Rain = 0
KLD1 231700Z 04014KT 16/12 A3007 RMK A01 T01550115  RH  080%=      5-min Rain = 0
KLD1 231705Z 04015KT 16/11 A3007 RMK A01 T01550113  RH  079%=      5-min Rain = 0
KLD1 231710Z 04012KT 15/11 A3008 RMK A01 T01540113  RH  079%=      5-min Rain = 0
KLD1 231715Z 04012KT 15/11 A3008 RMK A01 T01530110  RH  078%=      5-min Rain = 0
KLD1 231720Z 04012KT 15/11 A3008 RMK A01 T01540111  RH  078%=      5-min Rain = 0
KLD1 231725Z 05011KT 15/11 A3008 RMK A01 T01520111  RH  079%=      5-min Rain = 0
KLD1 231730Z 04012KT 15/11 A3008 RMK A01 T01520109  RH  078%=      5-min Rain = 0
KLD1 231735Z 04009KT 16/11 A3008 RMK A01 T01550107  RH  076%=      5-min Rain = 0
KLD1 231740Z 05010KT 15/11 A3008 RMK A01 T01530107  RH  076%=      5-min Rain = 0
KLD1 231745Z 05011KT 15/11 A3008 RMK A01 T01520109  RH  078%=      5-min Rain = 0
KLD1 231750Z 05011KT 16/11 A3007 RMK A01 T01550106  RH  075%=      5-min Rain = 0
KLD1 231755Z 04010KT 16/11 A3007 RMK A01 T01560107  RH  075%=      5-min Rain = 0
KLD1 231800Z 05011KT 16/11 A3007 RMK A01 T01580108  RH  075%=      5-min Rain = 0
KLD1 231805Z 05012KT 16/11 A3007 RMK A01 T01600107  RH  073%=      5-min Rain = 0
KLD1 231810Z 06011KT 16/11 A3007 RMK A01 T01610106  RH  072%=      5-min Rain = 0
KLD1 231815Z 06012KT 16/11 A3007 RMK A01 T01600109  RH  074%=      5-min Rain = 0
KLD1 231820Z 05013KT 16/12 A3007 RMK A01 T01600115  RH  077%=      5-min Rain = 0
KLD1 231825Z 04012KT 16/12 A3007 RMK A01 T01590115  RH  078%=      5-min Rain = 0
KLD1 231830Z 04013KT 16/11 A3007 RMK A01 T01590114  RH  077%=      5-min Rain = 0
KLD1 231835Z 03012G17KT 16/12 A3007 RMK A01 T01600116  RH  078%=      5-min Rain = 0
KLD1 231840Z 03014KT 16/12 A3007 RMK A01 T01560117  RH  080%=      5-min Rain = 0
KLD1 231845Z 02013KT 15/12 A3007 RMK A01 T01530116  RH  081%=      5-min Rain = 0
KLD1 231850Z 03012KT 15/12 A3007 RMK A01 T01540116  RH  081%=      5-min Rain = 0
KLD1 231855Z 02012KT 16/12 A3006 RMK A01 T01560117  RH  080%=      5-min Rain = 0
KLD1 231900Z 02011KT 16/12 A3006 RMK A01 T01570115  RH  079%=      5-min Rain = 0
KLD1 231905Z 03011KT 16/12 A3006 RMK A01 T01570115  RH  079%=      5-min Rain = 0
KLD1 231910Z 03013KT 16/12 A3006 RMK A01 T01560115  RH  080%=      5-min Rain = 0
KLD1 231915Z 03015KT 16/12 A3006 RMK A01 T01550115  RH  080%=      5-min Rain = 0
KLD1 231920Z 02014KT 16/12 A3006 RMK A01 T01560116  RH  080%=      5-min Rain = 0
KLD1 231925Z 02014KT 16/12 A3006 RMK A01 T01570118  RH  081%=      5-min Rain = 0
KLD1 231930Z 03014KT 16/12 A3006 RMK A01 T01590117  RH  079%=      5-min Rain = 0
KLD1 231935Z 01016G21KT 16/12 A3006 RMK A01 T01560116  RH  080%=      5-min Rain = 0
KLD1 231940Z 02017KT 15/12 A3006 RMK A01 T01490115  RH  083%=      5-min Rain = 0
KLD1 231945Z 02017KT 14/11 A3006 RMK A01 T01440112  RH  084%=      5-min Rain = 0
KLD1 231950Z 02014KT 14/11 A3007 RMK A01 T01420113  RH  086%=      5-min Rain = 0
KLD1 231955Z 01014KT 14/11 A3007 RMK A01 T01390112  RH  086%=      5-min Rain = 0
KLD1 232000Z 02013G18KT 14/11 A3006 RMK A01 T01400113  RH  087%=      5-min Rain = 0
KLD1 232005Z 02015KT 14/11 A3006 RMK A01 T01370110  RH  086%=      5-min Rain = 0
KLD1 232010Z 02015KT 14/11 A3007 RMK A01 T01350109  RH  087%=      5-min Rain = 0
KLD1 232015Z 03014KT 14/11 A3007 RMK A01 T01350109  RH  087%=      5-min Rain = 0
KLD1 232020Z 02013KT 14/11 A3007 RMK A01 T01350109  RH  087%=      5-min Rain = 0
KLD1 232025Z 02013KT 14/11 A3006 RMK A01 T01350108  RH  087%=      5-min Rain = 0
KLD1 232030Z 03014KT 14/11 A3006 RMK A01 T01360108  RH  086%=      5-min Rain = 0
KLD1 232035Z 02015KT 14/11 A3006 RMK A01 T01350108  RH  087%=      5-min Rain = 0
KLD1 232040Z 02014KT 13/11 A3006 RMK A01 T01330107  RH  087%=      5-min Rain = 0
KLD1 232045Z 02013G18KT 13/11 A3006 RMK A01 T01330107  RH  087%=      5-min Rain = 0
KLD1 232050Z 01014KT 13/11 A3006 RMK A01 T01300107  RH  089%=      5-min Rain = 0
KLD1 232055Z 02015KT 13/11 A3006 RMK A01 T01290106  RH  089%=      5-min Rain = 0
KLD1 232100Z 02015KT 13/11 A3005 RMK A01 T01290106  RH  089%=      5-min Rain = 0
KLD1 232105Z 02015KT 13/11 A3005 RMK A01 T01280106  RH  089%=      5-min Rain = 0
KLD1 232110Z 01014KT 13/11 A3005 RMK A01 T01280106  RH  090%=      5-min Rain = 0
KLD1 232115Z 02013KT 13/11 A3005 RMK A01 T01280107  RH  090%=      5-min Rain = 0
KLD1 232120Z 03014KT 13/11 A3005 RMK A01 T01280106  RH  090%=      5-min Rain = 0
KLD1 232125Z 03013KT 13/11 A3005 RMK A01 T01280106  RH  089%=      5-min Rain = 0
KLD1 232130Z 02013KT 13/11 A3005 RMK A01 T01280106  RH  090%=      5-min Rain = 0
KLD1 232135Z 02014KT 13/11 A3005 RMK A01 T01270105  RH  089%=      5-min Rain = 0
KLD1 232140Z 02014KT 13/11 A3004 RMK A01 T01260105  RH  090%=      5-min Rain = 0
KLD1 232145Z 02013KT 13/11 A3004 RMK A01 T01280106  RH  089%=      5-min Rain = 0
KLD1 232150Z 03013KT 13/10 A3004 RMK A01 T01260104  RH  089%=      5-min Rain = 0
KLD1 232155Z 02013KT 13/10 A3004 RMK A01 T01250104  RH  090%=      5-min Rain = 0
KLD1 232200Z 02014KT 12/10 A3004 RMK A01 T01230103  RH  090%=      5-min Rain = 0
KLD1 232205Z 02012KT 12/10 A3004 RMK A01 T01240104  RH  091%=      5-min Rain = 0
KLD1 232210Z 01014KT 12/10 A3004 RMK A01 T01230102  RH  090%=      5-min Rain = 0
KLD1 232215Z 01014KT 12/10 A3005 RMK A01 T01240102  RH  090%=      5-min Rain = 0
KLD1 232220Z 02014KT 13/10 A3004 RMK A01 T01250102  RH  089%=      5-min Rain = 0
KLD1 232225Z 01015KT 13/10 A3004 RMK A01 T01260101  RH  088%=      5-min Rain = 0
KLD1 232230Z 02014KT 13/10 A3004 RMK A01 T01280102  RH  087%=      5-min Rain = 0
KLD1 232235Z 02015KT 13/10 A3004 RMK A01 T01290101  RH  086%=      5-min Rain = 0
KLD1 232240Z 02015KT 13/10 A3004 RMK A01 T01270101  RH  087%=      5-min Rain = 0
KLD1 232245Z 02014KT 13/10 A3004 RMK A01 T01270100  RH  087%=      5-min Rain = 0
KLD1 232250Z 02015KT 13/10 A3003 RMK A01 T01270100  RH  087%=      5-min Rain = 0
KLD1 232255Z 01014KT 13/10 A3003 RMK A01 T01260100  RH  086%=      5-min Rain = 0
KLD1 232300Z 01016G22KT 13/10 A3003 RMK A01 T01270100  RH  086%=      5-min Rain = 0
KLD1 232305Z 01015KT 13/10 A3003 RMK A01 T01250100  RH  087%=      5-min Rain = 0
KLD1 232310Z 01014KT 13/10 A3003 RMK A01 T01280101  RH  086%=      5-min Rain = 0
KLD1 232315Z 01014KT 13/10 A3002 RMK A01 T01280099  RH  085%=      5-min Rain = 0
KLD1 232320Z 01012KT 13/10 A3003 RMK A01 T01320102  RH  085%=      5-min Rain = 0
KLD1 232325Z 01013KT 14/10 A3003 RMK A01 T01360101  RH  082%=      5-min Rain = 0
KLD1 232330Z 01012KT 14/10 A3003 RMK A01 T01350101  RH  082%=      5-min Rain = 0
KLD1 232335Z 01012KT 13/10 A3003 RMK A01 T01340101  RH  083%=      5-min Rain = 0
KLD1 232340Z 02014KT 13/10 A3003 RMK A01 T01330099  RH  083%=      5-min Rain = 0
KLD1 232345Z 01014KT 13/10 A3003 RMK A01 T01310100  RH  084%=      5-min Rain = 0
KLD1 232350Z 00014KT 13/10 A3004 RMK A01 T01300099  RH  084%=      5-min Rain = 0
KLD1 232355Z 01013G18KT 13/10 A3004 RMK A01 T01300096  RH  082%=      5-min Rain = 0
KLD1 240000Z 00013KT 13/10 A3004 RMK A01 T01330097  RH  081%=      5-min Rain = 0
KLD1 240005Z 00012KT 13/10 A3004 RMK A01 T01330097  RH  081%=      5-min Rain = 0
KLD1 240010Z 02011KT 13/10 A3004 RMK A01 T01330099  RH  082%=      5-min Rain = 0
KLD1 240015Z 02014KT 13/10 A3004 RMK A01 T01300098  RH  083%=      5-min Rain = 0
KLD1 240020Z 03014KT 13/10 A3004 RMK A01 T01290096  RH  083%=      5-min Rain = 0
KLD1 240025Z 03014KT 13/10 A3003 RMK A01 T01290096  RH  083%=      5-min Rain = 0
KLD1 240030Z 02014KT 13/10 A3004 RMK A01 T01270096  RH  084%=      5-min Rain = 0
KLD1 240035Z 02014KT 13/09 A3004 RMK A01 T01270094  RH  083%=      5-min Rain = 0
KLD1 240040Z 02013KT 13/09 A3004 RMK A01 T01270094  RH  083%=      5-min Rain = 0
KLD1 240045Z 02012KT 13/10 A3004 RMK A01 T01270095  RH  083%=      5-min Rain = 0
KLD1 240050Z 02011KT 13/10 A3004 RMK A01 T01270096  RH  084%=      5-min Rain = 0
KLD1 240055Z 01012KT 13/10 A3004 RMK A01 T01280096  RH  084%=      5-min Rain = 0
KLD1 240100Z 02014KT 13/09 A3004 RMK A01 T01270094  RH  083%=      5-min Rain = 0
KLD1 240105Z 02012KT 13/09 A3003 RMK A01 T01270092  RH  082%=      5-min Rain = 0
KLD1 240110Z 02011KT 13/09 A3003 RMK A01 T01270092  RH  082%=      5-min Rain = 0
KLD1 240115Z 02010KT 13/09 A3003 RMK A01 T01260093  RH  083%=      5-min Rain = 0
KLD1 240120Z 02009KT 13/09 A3004 RMK A01 T01260094  RH  084%=      5-min Rain = 0
KLD1 240125Z 03008KT 13/10 A3004 RMK A01 T01260095  RH  084%=      5-min Rain = 0
KLD1 240130Z 03009KT 13/10 A3003 RMK A01 T01260095  RH  084%=      5-min Rain = 0
KLD1 240135Z 03009KT 13/10 A3003 RMK A01 T01270096  RH  084%=      5-min Rain = 0
KLD1 240140Z 03009KT 13/10 A3003 RMK A01 T01270096  RH  084%=      5-min Rain = 0
KLD1 240145Z 02010KT 13/10 A3003 RMK A01 T01260095  RH  084%=      5-min Rain = 0
KLD1 240150Z 02011KT 13/10 A3002 RMK A01 T01260095  RH  084%=      5-min Rain = 0
KLD1 240155Z 03011KT 13/09 A3002 RMK A01 T01250094  RH  084%=      5-min Rain = 0
KLD1 240200Z 02010KT 12/09 A3003 RMK A01 T01220092  RH  084%=      5-min Rain = 0
KLD1 240205Z 02009KT 12/09 A3003 RMK A01 T01200092  RH  085%=      5-min Rain = 0
KLD1 240210Z 02008KT 12/09 A3004 RMK A01 T01190091  RH  086%=      5-min Rain = 0
KLD1 240215Z 02008KT 12/09 A3004 RMK A01 T01180091  RH  086%=      5-min Rain = 0
KLD1 240220Z 02008KT 12/09 A3004 RMK A01 T01160090  RH  087%=      5-min Rain = 0
KLD1 240225Z 02008KT 12/09 A3004 RMK A01 T01160089  RH  086%=      5-min Rain = 0
KLD1 240230Z 03008KT 12/09 A3005 RMK A01 T01150088  RH  086%=      5-min Rain = 0
KLD1 240235Z 02007KT 11/09 A3005 RMK A01 T01140088  RH  086%=      5-min Rain = 0
KLD1 240240Z 02007KT 11/09 A3005 RMK A01 T01120087  RH  087%=      5-min Rain = 0
KLD1 240245Z 01007KT 11/09 A3005 RMK A01 T01100087  RH  088%=      5-min Rain = 0
KLD1 240250Z 01006KT 11/09 A3005 RMK A01 T01080086  RH  089%=      5-min Rain = 0
KLD1 240255Z 00007KT 11/09 A3006 RMK A01 T01070086  RH  089%=      5-min Rain = 0
KLD1 240300Z 36007KT 11/09 A3005 RMK A01 T01060085  RH  090%=      5-min Rain = 0
KLD1 240305Z 36008KT 10/08 A3005 RMK A01 T01040084  RH  090%=      5-min Rain = 0
KLD1 240310Z 35009KT 11/08 A3005 RMK A01 T01050084  RH  090%=      5-min Rain = 0
KLD1 240315Z 35008KT 11/08 A3005 RMK A01 T01050084  RH  089%=      5-min Rain = 0
KLD1 240320Z 35008KT 11/08 A3006 RMK A01 T01050084  RH  089%=      5-min Rain = 0
KLD1 240325Z 36008KT 11/08 A3005 RMK A01 T01050083  RH  089%=      5-min Rain = 0
KLD1 240330Z 35009KT 11/08 A3004 RMK A01 T01050083  RH  089%=      5-min Rain = 0
KLD1 240335Z 35009KT 11/08 A3004 RMK A01 T01050083  RH  089%=      5-min Rain = 0
KLD1 240340Z 35008KT 11/08 A3004 RMK A01 T01050083  RH  089%=      5-min Rain = 0
KLD1 240345Z 36008KT 11/08 A3005 RMK A01 T01050083  RH  089%=      5-min Rain = 0
KLD1 240350Z 00008KT 11/08 A3005 RMK A01 T01050082  RH  088%=      5-min Rain = 0
KLD1 240355Z 01007KT 11/08 A3006 RMK A01 T01060083  RH  088%=      5-min Rain = 0
KLD1 240400Z 02007KT 11/08 A3007 RMK A01 T01070083  RH  088%=      5-min Rain = 0
KLD1 240405Z 01007KT 11/08 A3006 RMK A01 T01070084  RH  088%=      5-min Rain = 0
KLD1 240410Z 01007KT 11/08 A3007 RMK A01 T01070084  RH  088%=      5-min Rain = 0
KLD1 240415Z 01007KT 11/09 A3007 RMK A01 T01070085  RH  088%=      5-min Rain = 0
KLD1 240420Z 04007KT 11/08 A3007 RMK A01 T01070084  RH  088%=      5-min Rain = 0
KLD1 240425Z 04007KT 11/09 A3007 RMK A01 T01070085  RH  088%=      5-min Rain = 0
KLD1 240430Z 04006KT 11/09 A3007 RMK A01 T01070085  RH  089%=      5-min Rain = 0
KLD1 240435Z 03007KT 11/09 A3006 RMK A01 T01070085  RH  089%=      5-min Rain = 0
KLD1 240440Z 02006KT 11/08 A3006 RMK A01 T01060083  RH  089%=      5-min Rain = 0
KLD1 240445Z 02006KT 10/08 A3005 RMK A01 T01040083  RH  089%=      5-min Rain = 0
KLD1 240450Z 02007KT 10/08 A3004 RMK A01 T01030082  RH  090%=      5-min Rain = 0
KLD1 240455Z 02007KT 10/08 A3004 RMK A01 T01020082  RH  090%=      5-min Rain = 0

Page generated in 0.0093 seconds.